createdAt,value
2022-10-12T00:00:17.702Z,20.5
2022-10-12T00:01:18.296Z,14.7
2022-10-12T00:02:18.931Z,16.2
2022-10-12T00:03:19.522Z,12.9
2022-10-12T00:04:20.115Z,13.9
2022-10-12T00:05:20.711Z,16.6
2022-10-12T00:06:21.304Z,11.9
2022-10-12T00:07:21.898Z,9.8
2022-10-12T00:08:22.492Z,15.0
2022-10-12T00:09:23.085Z,20.4
2022-10-12T00:10:23.679Z,24.1
2022-10-12T00:11:24.277Z,18.0
2022-10-12T00:12:24.870Z,13.4
2022-10-12T00:13:25.465Z,14.5
2022-10-12T00:14:26.058Z,12.6
2022-10-12T00:15:26.656Z,16.2
2022-10-12T00:16:27.248Z,13.7
2022-10-12T00:17:27.844Z,16.0
2022-10-12T00:18:28.438Z,20.9
2022-10-12T00:19:29.033Z,13.0
2022-10-12T00:20:29.625Z,19.0
2022-10-12T00:21:30.220Z,20.9
2022-10-12T00:22:30.816Z,14.9
2022-10-12T00:23:31.409Z,27.1
2022-10-12T00:24:32.004Z,21.0
2022-10-12T00:25:32.601Z,15.1
2022-10-12T00:26:33.193Z,16.0
2022-10-12T00:27:33.789Z,22.9
2022-10-12T00:28:34.436Z,19.6
2022-10-12T00:29:35.017Z,15.4
2022-10-12T00:30:35.610Z,17.0
2022-10-12T00:31:36.208Z,16.0
2022-10-12T00:32:36.800Z,13.3
2022-10-12T00:33:37.418Z,12.0
2022-10-12T00:34:38.010Z,14.9
2022-10-12T00:35:38.719Z,19.0
2022-10-12T00:36:39.246Z,20.5
2022-10-12T00:37:40.180Z,17.7
2022-10-12T00:38:40.892Z,27.6
2022-10-12T00:39:41.488Z,12.6
2022-10-12T00:40:42.081Z,9.0
2022-10-12T00:41:42.698Z,19.3
2022-10-12T00:42:43.292Z,24.9
2022-10-12T00:43:43.887Z,17.1
2022-10-12T00:44:44.479Z,17.9
2022-10-12T00:45:45.091Z,17.0
2022-10-12T00:46:45.670Z,11.6
2022-10-12T00:47:46.265Z,20.1
2022-10-12T00:48:46.857Z,15.6
2022-10-12T00:49:47.451Z,15.5
2022-10-12T00:50:48.044Z,13.9
2022-10-12T00:51:48.640Z,8.3
2022-10-12T00:52:49.257Z,12.6
2022-10-12T00:53:49.850Z,22.3
2022-10-12T00:54:50.447Z,14.5
2022-10-12T00:55:51.038Z,13.9
2022-10-12T00:56:51.635Z,15.1
2022-10-12T00:57:52.248Z,16.3
2022-10-12T00:58:52.844Z,14.1
2022-10-12T00:59:53.437Z,12.0
2022-10-12T01:00:54.070Z,11.3
2022-10-12T01:01:54.626Z,17.0
2022-10-12T01:02:55.219Z,18.3
2022-10-12T01:03:55.815Z,15.0
2022-10-12T01:04:56.408Z,15.7
2022-10-12T01:05:57.003Z,19.5
2022-10-12T01:06:57.599Z,13.3
2022-10-12T01:07:58.193Z,16.1
2022-10-12T01:08:58.789Z,18.3
2022-10-12T01:09:59.379Z,14.1
2022-10-12T01:10:59.975Z,20.0
2022-10-12T01:12:00.570Z,17.2
2022-10-12T01:13:01.165Z,8.9
2022-10-12T01:14:01.759Z,13.2
2022-10-12T01:15:02.355Z,17.1
2022-10-12T01:16:02.947Z,19.0
2022-10-12T01:17:03.542Z,10.6
2022-10-12T01:18:04.138Z,16.3
2022-10-12T01:19:04.736Z,13.2
2022-10-12T01:20:05.330Z,11.5
2022-10-12T01:21:05.926Z,20.0
2022-10-12T01:22:06.520Z,10.2
2022-10-12T01:23:07.117Z,12.5
2022-10-12T01:24:07.710Z,14.8
2022-10-12T01:25:08.305Z,21.7
2022-10-12T01:26:08.898Z,10.9
2022-10-12T01:27:09.494Z,17.1
2022-10-12T01:28:10.129Z,10.3
2022-10-12T01:29:10.720Z,12.3
2022-10-12T01:30:11.293Z,11.3
2022-10-12T01:31:11.897Z,16.9
2022-10-12T01:32:12.480Z,9.2
2022-10-12T01:33:13.075Z,12.5
2022-10-12T01:34:13.669Z,13.0
2022-10-12T01:35:14.265Z,13.3
2022-10-12T01:36:14.856Z,14.0
2022-10-12T01:37:15.451Z,11.4
2022-10-12T01:38:16.048Z,13.3
2022-10-12T01:39:16.662Z,10.9
2022-10-12T01:40:17.255Z,10.7
2022-10-12T01:41:17.849Z,13.0
2022-10-12T01:42:18.444Z,17.6
2022-10-12T01:43:19.038Z,19.5
2022-10-12T01:44:19.634Z,12.8
2022-10-12T01:45:20.229Z,14.2
2022-10-12T01:46:20.842Z,7.4
2022-10-12T01:47:21.433Z,12.7
2022-10-12T01:48:22.027Z,10.8
2022-10-12T01:49:22.626Z,10.3
2022-10-12T01:50:23.216Z,18.9
2022-10-12T01:51:23.811Z,10.4
2022-10-12T01:52:24.405Z,11.7
2022-10-12T01:53:25.001Z,8.7
2022-10-12T01:54:25.590Z,9.2
2022-10-12T01:55:26.186Z,15.3
2022-10-12T01:56:26.779Z,11.8
2022-10-12T01:57:27.373Z,12.2
2022-10-12T01:58:27.966Z,14.2
2022-10-12T01:59:28.561Z,19.9
2022-10-12T02:00:29.156Z,15.3
2022-10-12T02:01:29.824Z,14.0
2022-10-12T02:02:30.396Z,12.5
2022-10-12T02:03:30.993Z,11.0
2022-10-12T02:04:31.604Z,11.2
2022-10-12T02:05:32.199Z,8.8
2022-10-12T02:06:32.813Z,15.2
2022-10-12T02:07:33.409Z,14.9
2022-10-12T02:08:33.999Z,9.1
2022-10-12T02:09:34.596Z,9.6
2022-10-12T02:10:35.187Z,12.9
2022-10-12T02:11:35.782Z,14.8
2022-10-12T02:12:36.374Z,8.7
2022-10-12T02:13:36.989Z,9.9
2022-10-12T02:14:37.585Z,13.4
2022-10-12T02:15:38.179Z,12.8
2022-10-12T02:16:38.772Z,10.8
2022-10-12T02:17:39.660Z,10.2
2022-10-12T02:18:40.446Z,14.8
2022-10-12T02:19:41.045Z,13.1
2022-10-12T02:20:41.637Z,6.3
2022-10-12T02:21:42.230Z,6.5
2022-10-12T02:22:42.824Z,11.0
2022-10-12T02:23:43.418Z,13.2
2022-10-12T02:24:44.015Z,11.0
2022-10-12T02:25:44.610Z,10.0
2022-10-12T02:26:45.206Z,9.6
2022-10-12T02:27:45.798Z,11.8
2022-10-12T02:28:46.428Z,14.8
2022-10-12T02:29:46.987Z,11.8
2022-10-12T02:30:47.579Z,16.3
2022-10-12T02:31:48.176Z,11.0
2022-10-12T02:32:48.772Z,11.5
2022-10-12T02:33:49.367Z,11.9
2022-10-12T02:34:49.963Z,8.7
2022-10-12T02:35:50.572Z,10.0
2022-10-12T02:36:51.167Z,18.0
2022-10-12T02:37:51.763Z,10.5
2022-10-12T02:38:52.359Z,8.6
2022-10-12T02:39:52.953Z,8.2
2022-10-12T02:40:53.546Z,10.1
2022-10-12T02:41:54.141Z,12.4
2022-10-12T02:43:11.428Z,10.8
2022-10-12T02:43:56.322Z,8.6
2022-10-12T02:44:56.916Z,15.1
2022-10-12T02:45:57.508Z,7.6
2022-10-12T02:46:58.104Z,15.7
2022-10-12T02:47:58.699Z,8.8
2022-10-12T02:48:59.291Z,8.6
2022-10-12T02:49:59.884Z,8.4
2022-10-12T02:51:00.476Z,12.1
2022-10-12T02:52:01.108Z,10.2
2022-10-12T02:53:01.688Z,12.7
2022-10-12T02:54:02.282Z,13.2
2022-10-12T02:55:02.876Z,9.3
2022-10-12T02:56:03.470Z,8.5
2022-10-12T02:57:04.082Z,13.9
2022-10-12T02:58:04.677Z,10.5
2022-10-12T02:59:05.271Z,14.8
2022-10-12T03:00:05.864Z,7.2
2022-10-12T03:01:06.499Z,13.3
2022-10-12T03:02:07.083Z,6.6
2022-10-12T03:03:07.678Z,15.3
2022-10-12T03:04:08.272Z,17.1
2022-10-12T03:05:08.869Z,10.0
2022-10-12T03:06:09.467Z,11.3
2022-10-12T03:07:10.061Z,16.8
2022-10-12T03:08:10.675Z,11.7
2022-10-12T03:09:11.269Z,11.2
2022-10-12T03:10:11.864Z,13.3
2022-10-12T03:11:12.480Z,15.2
2022-10-12T03:12:13.074Z,13.3
2022-10-12T03:13:13.666Z,11.2
2022-10-12T03:14:14.263Z,11.5
2022-10-12T03:15:14.858Z,13.1
2022-10-12T03:16:15.471Z,9.4
2022-10-12T03:17:16.063Z,14.1
2022-10-12T03:18:16.658Z,10.7
2022-10-12T03:19:17.251Z,14.0
2022-10-12T03:20:17.848Z,10.9
2022-10-12T03:21:18.441Z,13.1
2022-10-12T03:22:19.033Z,5.8
2022-10-12T03:23:19.627Z,8.0
2022-10-12T03:24:20.239Z,19.9
2022-10-12T03:25:20.831Z,19.7
2022-10-12T03:26:21.428Z,5.1
2022-10-12T03:27:22.018Z,11.9
2022-10-12T03:28:22.675Z,13.0
2022-10-12T03:29:23.242Z,19.5
2022-10-12T03:30:23.838Z,8.2
2022-10-12T03:31:24.430Z,12.9
2022-10-12T03:32:25.043Z,8.0
2022-10-12T03:33:25.639Z,21.5
2022-10-12T03:34:26.235Z,10.3
2022-10-12T03:35:26.831Z,12.4
2022-10-12T03:36:27.425Z,7.4
2022-10-12T03:37:28.018Z,9.2
2022-10-12T03:38:28.613Z,13.4
2022-10-12T03:39:29.208Z,10.8
2022-10-12T03:40:29.802Z,14.0
2022-10-12T03:41:30.398Z,14.9
2022-10-12T03:42:30.995Z,15.6
2022-10-12T03:43:31.590Z,11.5
2022-10-12T03:44:32.186Z,13.1
2022-10-12T03:45:32.778Z,13.8
2022-10-12T03:46:33.374Z,10.1
2022-10-12T03:47:33.968Z,9.2
2022-10-12T03:48:34.562Z,11.0
2022-10-12T03:49:35.155Z,6.9
2022-10-12T03:50:35.751Z,18.0
2022-10-12T03:51:36.342Z,11.6
2022-10-12T03:52:36.956Z,9.1
2022-10-12T03:53:40.720Z,8.8
2022-10-12T03:54:38.160Z,7.4
2022-10-12T03:55:38.756Z,12.0
2022-10-12T03:56:39.350Z,11.2
2022-10-12T03:57:40.421Z,10.2
2022-10-12T03:58:41.220Z,15.5
2022-10-12T03:59:41.822Z,11.4
2022-10-12T04:00:42.417Z,10.4
2022-10-12T04:01:43.101Z,9.9
2022-10-12T04:02:43.684Z,8.9
2022-10-12T04:03:44.271Z,14.8
2022-10-12T04:04:44.866Z,9.9
2022-10-12T04:05:45.473Z,8.2
2022-10-12T04:06:46.053Z,14.5
2022-10-12T04:07:46.646Z,12.3
2022-10-12T04:08:50.853Z,13.2
2022-10-12T04:09:48.828Z,6.5
2022-10-12T04:10:49.419Z,7.3
2022-10-12T04:11:50.014Z,14.6
2022-10-12T04:12:50.609Z,12.8
2022-10-12T04:13:51.202Z,7.2
2022-10-12T04:14:51.796Z,4.0
2022-10-12T04:15:52.388Z,8.6
2022-10-12T04:16:53.001Z,8.8
2022-10-12T04:17:53.599Z,9.7
2022-10-12T04:18:54.189Z,7.9
2022-10-12T04:19:54.781Z,9.9
2022-10-12T04:20:55.377Z,6.2
2022-10-12T04:21:55.968Z,9.8
2022-10-12T04:22:56.563Z,6.6
2022-10-12T04:23:57.158Z,10.0
2022-10-12T04:24:57.755Z,7.5
2022-10-12T04:25:58.345Z,8.4
2022-10-12T04:26:58.940Z,16.6
2022-10-12T04:27:59.534Z,10.5
2022-10-12T04:29:00.131Z,9.5
2022-10-12T04:30:00.726Z,8.8
2022-10-12T04:31:01.319Z,12.3
2022-10-12T04:32:01.931Z,8.5
2022-10-12T04:33:02.525Z,10.0
2022-10-12T04:34:03.119Z,12.9
2022-10-12T04:35:03.716Z,11.1
2022-10-12T04:36:04.314Z,10.7
2022-10-12T04:37:04.908Z,18.3
2022-10-12T04:38:05.497Z,8.2
2022-10-12T04:39:06.092Z,7.9
2022-10-12T04:40:06.685Z,8.2
2022-10-12T04:41:07.280Z,12.8
2022-10-12T04:42:07.874Z,11.9
2022-10-12T04:43:08.479Z,10.5
2022-10-12T04:44:09.081Z,6.6
2022-10-12T04:45:09.678Z,10.0
2022-10-12T04:46:10.274Z,10.0
2022-10-12T04:47:10.868Z,8.8
2022-10-12T04:48:11.459Z,12.1
2022-10-12T04:49:12.053Z,6.2
2022-10-12T04:50:12.646Z,12.4
2022-10-12T04:51:13.239Z,9.4
2022-10-12T04:52:13.833Z,7.0
2022-10-12T04:53:14.428Z,6.7
2022-10-12T04:54:15.018Z,7.8
2022-10-12T04:55:15.613Z,6.4
2022-10-12T04:56:16.206Z,7.0
2022-10-12T04:57:16.800Z,8.6
2022-10-12T04:58:17.395Z,9.9
2022-10-12T04:59:18.006Z,9.0
2022-10-12T05:00:18.598Z,12.6
2022-10-12T05:01:19.257Z,13.0
2022-10-12T05:02:19.787Z,10.9
2022-10-12T05:03:20.399Z,7.5
2022-10-12T05:04:21.019Z,12.2
2022-10-12T05:05:21.594Z,8.7
2022-10-12T05:06:22.187Z,8.0
2022-10-12T05:07:22.785Z,10.5
2022-10-12T05:08:23.374Z,5.7
2022-10-12T05:09:23.988Z,15.4
2022-10-12T05:10:24.579Z,10.1
2022-10-12T05:11:25.174Z,9.0
2022-10-12T05:12:25.771Z,15.4
2022-10-12T05:13:26.364Z,11.8
2022-10-12T05:14:26.958Z,9.2
2022-10-12T05:15:27.554Z,13.9
2022-10-12T05:16:28.147Z,9.5
2022-10-12T05:17:28.744Z,11.8
2022-10-12T05:18:29.338Z,10.4
2022-10-12T05:19:29.932Z,9.7
2022-10-12T05:20:30.573Z,8.0
2022-10-12T05:21:31.164Z,8.4
2022-10-12T05:22:31.810Z,10.7
2022-10-12T05:23:32.404Z,8.4
2022-10-12T05:24:33.000Z,7.4
2022-10-12T05:25:33.616Z,17.1
2022-10-12T05:26:34.211Z,13.3
2022-10-12T05:27:34.812Z,8.7
2022-10-12T05:28:40.641Z,10.0
2022-10-12T05:29:36.012Z,10.3
2022-10-12T05:30:36.609Z,6.2
2022-10-12T05:31:37.208Z,6.7
2022-10-12T05:32:38.076Z,7.9
2022-10-12T05:33:38.784Z,8.6
2022-10-12T05:34:39.380Z,11.9
2022-10-12T05:35:43.943Z,17.6
2022-10-12T05:36:41.566Z,9.1
2022-10-12T05:37:42.163Z,12.8
2022-10-12T05:38:42.761Z,12.7
2022-10-12T05:39:43.365Z,8.4
2022-10-12T05:40:43.976Z,10.1
2022-10-12T05:41:44.572Z,12.5
2022-10-12T05:42:45.171Z,7.2
2022-10-12T05:43:45.768Z,11.1
2022-10-12T05:44:46.367Z,13.3
2022-10-12T05:45:46.964Z,7.2
2022-10-12T05:46:47.565Z,10.8
2022-10-12T05:47:48.158Z,7.1
2022-10-12T05:48:48.760Z,14.7
2022-10-12T05:49:49.353Z,12.5
2022-10-12T05:50:49.953Z,8.7
2022-10-12T05:51:50.550Z,14.1
2022-10-12T05:52:51.152Z,12.8
2022-10-12T05:53:51.748Z,6.2
2022-10-12T05:54:52.350Z,7.2
2022-10-12T05:55:52.945Z,10.9
2022-10-12T05:56:53.548Z,11.8
2022-10-12T05:57:54.148Z,7.2
2022-10-12T05:58:54.781Z,12.6
2022-10-12T05:59:55.378Z,11.9
2022-10-12T06:00:56.000Z,12.6
2022-10-12T06:01:56.613Z,9.4
2022-10-12T06:02:57.192Z,7.7
2022-10-12T06:03:57.789Z,9.5
2022-10-12T06:04:58.388Z,11.4
2022-10-12T06:05:58.986Z,10.5
2022-10-12T06:06:59.586Z,11.6
2022-10-12T06:08:00.184Z,9.6
2022-10-12T06:09:00.785Z,6.6
2022-10-12T06:10:01.383Z,13.5
2022-10-12T06:11:01.984Z,12.0
2022-10-12T06:12:02.589Z,9.5
2022-10-12T06:13:03.205Z,7.3
2022-10-12T06:14:03.806Z,13.5
2022-10-12T06:15:04.436Z,8.5
2022-10-12T06:16:05.031Z,7.6
2022-10-12T06:17:05.634Z,10.0
2022-10-12T06:18:06.233Z,10.9
2022-10-12T06:19:06.837Z,9.3
2022-10-12T06:20:07.431Z,9.0
2022-10-12T06:21:31.968Z,10.8
2022-10-12T06:22:09.520Z,11.8
2022-10-12T06:23:10.121Z,8.0
2022-10-12T06:24:10.721Z,9.3
2022-10-12T06:25:11.321Z,13.3
2022-10-12T06:26:11.942Z,12.9
2022-10-12T06:27:12.542Z,8.2
2022-10-12T06:28:13.162Z,10.6
2022-10-12T06:29:13.740Z,12.4
2022-10-12T06:30:14.339Z,10.0
2022-10-12T06:31:14.938Z,6.5
2022-10-12T06:32:15.537Z,6.5
2022-10-12T06:33:16.134Z,8.3
2022-10-12T06:34:16.733Z,4.3
2022-10-12T06:35:17.333Z,11.6
2022-10-12T06:36:17.935Z,6.0
2022-10-12T06:37:44.348Z,9.9
2022-10-12T06:38:20.119Z,7.3
2022-10-12T06:39:20.720Z,7.5
2022-10-12T06:40:21.310Z,9.4
2022-10-12T06:41:21.909Z,7.4
2022-10-12T06:42:22.503Z,5.4
2022-10-12T06:43:23.100Z,7.7
2022-10-12T06:44:23.698Z,4.9
2022-10-12T06:45:24.295Z,7.6
2022-10-12T06:46:24.893Z,2.4
2022-10-12T06:47:25.510Z,4.7
2022-10-12T06:48:26.136Z,8.0
2022-10-12T06:49:26.746Z,6.4
2022-10-12T06:50:27.344Z,4.9
2022-10-12T06:51:27.942Z,3.1
2022-10-12T06:52:28.545Z,3.9
2022-10-12T06:53:29.137Z,5.0
2022-10-12T06:54:29.732Z,4.8
2022-10-12T06:55:30.332Z,6.1
2022-10-12T06:56:30.929Z,7.2
2022-10-12T06:57:31.547Z,6.8
2022-10-12T06:58:32.145Z,4.2
2022-10-12T06:59:32.743Z,2.2
2022-10-12T07:00:33.360Z,3.0
2022-10-12T07:01:34.030Z,5.5
2022-10-12T07:02:34.617Z,4.1
2022-10-12T07:03:35.214Z,5.7
2022-10-12T07:04:35.814Z,6.8
2022-10-12T07:05:36.414Z,4.4
2022-10-12T07:06:37.013Z,5.8
2022-10-12T07:07:37.611Z,3.4
2022-10-12T07:08:38.210Z,5.9
2022-10-12T07:09:38.809Z,3.1
2022-10-12T07:10:39.411Z,3.6
2022-10-12T07:11:40.010Z,5.7
2022-10-12T07:12:40.806Z,6.2
2022-10-12T07:13:41.220Z,3.6
2022-10-12T07:14:41.819Z,4.3
2022-10-12T07:15:42.438Z,4.3
2022-10-12T07:16:43.058Z,5.7
2022-10-12T07:17:43.660Z,3.3
2022-10-12T07:18:44.260Z,3.5
2022-10-12T07:19:44.856Z,4.7
2022-10-12T07:20:45.454Z,2.5
2022-10-12T07:21:46.054Z,2.1
2022-10-12T07:22:46.652Z,2.1
2022-10-12T07:23:47.264Z,3.6
2022-10-12T07:24:47.849Z,2.5
2022-10-12T07:25:48.448Z,2.4
2022-10-12T07:26:49.049Z,3.5
2022-10-12T07:27:49.653Z,3.7
2022-10-12T07:28:50.288Z,3.4
2022-10-12T07:29:50.872Z,3.6
2022-10-12T07:30:51.468Z,4.0
2022-10-12T07:31:52.191Z,6.2
2022-10-12T07:32:52.730Z,4.4
2022-10-12T07:33:53.330Z,5.1
2022-10-12T07:34:53.928Z,4.8
2022-10-12T07:36:12.882Z,4.1
2022-10-12T07:36:59.502Z,5.5
2022-10-12T07:37:57.713Z,4.9
2022-10-12T07:38:58.332Z,8.2
2022-10-12T07:39:58.934Z,5.7
2022-10-12T07:40:59.530Z,2.8
2022-10-12T07:42:00.132Z,3.9
2022-10-12T07:43:15.297Z,3.8
2022-10-12T07:44:02.346Z,2.8
2022-10-12T07:45:02.950Z,4.4
2022-10-12T07:46:03.550Z,3.9
2022-10-12T07:47:04.149Z,3.9
2022-10-12T07:48:04.749Z,3.5
2022-10-12T07:49:05.346Z,3.3
2022-10-12T07:50:05.946Z,4.2
2022-10-12T07:51:06.555Z,2.8
2022-10-12T07:52:07.141Z,4.8
2022-10-12T07:53:07.740Z,3.9
2022-10-12T07:54:08.359Z,3.8
2022-10-12T07:55:08.958Z,4.7
2022-10-12T07:56:09.560Z,3.5
2022-10-12T07:57:10.159Z,4.5
2022-10-12T07:58:10.758Z,2.9
2022-10-12T07:59:11.358Z,5.9
2022-10-12T08:00:11.957Z,7.3
2022-10-12T08:01:12.621Z,7.3
2022-10-12T08:02:13.264Z,6.8
2022-10-12T08:03:13.847Z,9.1
2022-10-12T08:04:14.446Z,5.0
2022-10-12T08:05:15.046Z,3.9
2022-10-12T08:06:15.668Z,6.3
2022-10-12T08:07:16.264Z,4.2
2022-10-12T08:08:16.865Z,3.9
2022-10-12T08:09:17.462Z,6.1
2022-10-12T08:10:18.062Z,8.7
2022-10-12T08:11:18.663Z,3.7
2022-10-12T08:12:19.267Z,6.4
2022-10-12T08:13:19.861Z,7.9
2022-10-12T08:14:20.459Z,6.7
2022-10-12T08:15:21.075Z,7.5
2022-10-12T08:16:21.677Z,9.7
2022-10-12T08:17:22.274Z,5.7
2022-10-12T08:18:22.873Z,4.6
2022-10-12T08:19:23.470Z,8.0
2022-10-12T08:20:24.069Z,3.8
2022-10-12T08:21:24.668Z,4.5
2022-10-12T08:22:25.271Z,7.9
2022-10-12T08:23:25.865Z,5.6
2022-10-12T08:24:26.468Z,6.4
2022-10-12T08:25:27.068Z,4.9
2022-10-12T08:26:27.668Z,3.2
2022-10-12T08:27:28.266Z,4.2
2022-10-12T08:28:28.936Z,8.6
2022-10-12T08:29:29.491Z,5.0
2022-10-12T08:30:30.108Z,5.7
2022-10-12T08:31:30.708Z,8.0
2022-10-12T08:32:31.330Z,11.9
2022-10-12T08:33:31.937Z,8.4
2022-10-12T08:34:32.533Z,7.8
2022-10-12T08:35:33.132Z,7.2
2022-10-12T08:36:33.736Z,5.5
2022-10-12T08:37:34.358Z,3.2
2022-10-12T08:38:34.956Z,5.6
2022-10-12T08:39:35.554Z,6.0
2022-10-12T08:40:36.155Z,8.1
2022-10-12T08:41:36.756Z,3.8
2022-10-12T08:42:37.380Z,3.5
2022-10-12T08:43:37.981Z,7.9
2022-10-12T08:44:38.582Z,7.5
2022-10-12T08:45:39.181Z,4.4
2022-10-12T08:46:39.782Z,8.8
2022-10-12T08:47:40.961Z,4.3
2022-10-12T08:48:41.888Z,5.4
2022-10-12T08:49:45.188Z,6.3
2022-10-12T08:50:44.113Z,6.1
2022-10-12T08:51:44.685Z,5.6
2022-10-12T08:52:45.284Z,8.3
2022-10-12T08:53:45.887Z,5.9
2022-10-12T08:54:46.487Z,4.5
2022-10-12T08:55:47.091Z,7.9
2022-10-12T08:56:47.692Z,3.0
2022-10-12T08:57:50.046Z,4.6
2022-10-12T08:58:49.885Z,10.9
2022-10-12T08:59:50.506Z,4.5
2022-10-12T09:00:51.108Z,7.4
2022-10-12T09:01:51.791Z,3.6
2022-10-12T09:02:52.341Z,6.0
2022-10-12T09:03:52.940Z,5.7
2022-10-12T09:04:53.545Z,3.3
2022-10-12T09:05:54.143Z,3.4
2022-10-12T09:06:54.762Z,5.8
2022-10-12T09:07:55.364Z,5.0
2022-10-12T09:08:55.967Z,6.3
2022-10-12T09:09:56.568Z,11.2
2022-10-12T09:10:57.170Z,5.2
2022-10-12T09:11:57.771Z,3.6
2022-10-12T09:12:58.371Z,9.9
2022-10-12T09:13:58.972Z,4.0
2022-10-12T09:14:59.575Z,4.5
2022-10-12T09:16:00.196Z,7.5
2022-10-12T09:17:00.818Z,8.5
2022-10-12T09:18:01.417Z,6.9
2022-10-12T09:19:02.017Z,5.7
2022-10-12T09:20:02.619Z,4.3
2022-10-12T09:21:03.216Z,4.6
2022-10-12T09:22:03.816Z,5.2
2022-10-12T09:23:04.432Z,3.9
2022-10-12T09:24:05.034Z,6.6
2022-10-12T09:25:05.639Z,4.7
2022-10-12T09:26:06.239Z,5.8
2022-10-12T09:27:06.840Z,7.9
2022-10-12T09:28:07.440Z,5.4
2022-10-12T09:29:08.041Z,6.0
2022-10-12T09:30:08.664Z,4.9
2022-10-12T09:31:09.261Z,4.9
2022-10-12T09:32:09.864Z,4.3
2022-10-12T09:33:10.464Z,9.8
2022-10-12T09:34:14.386Z,5.4
2022-10-12T09:35:11.738Z,9.5
2022-10-12T09:36:12.322Z,3.9
2022-10-12T09:37:12.921Z,4.7
2022-10-12T09:38:13.522Z,4.4
2022-10-12T09:39:14.123Z,5.3
2022-10-12T09:40:14.766Z,5.1
2022-10-12T09:41:15.330Z,6.0
2022-10-12T09:42:15.933Z,3.1
2022-10-12T09:43:16.534Z,5.1
2022-10-12T09:44:17.132Z,5.5
2022-10-12T09:45:18.067Z,9.1
2022-10-12T09:46:18.748Z,7.7
2022-10-12T09:47:19.348Z,6.7
2022-10-12T09:48:19.947Z,3.7
2022-10-12T09:49:20.547Z,6.7
2022-10-12T09:50:21.182Z,8.2
2022-10-12T09:51:21.840Z,7.5
2022-10-12T09:52:22.440Z,6.4
2022-10-12T09:53:23.042Z,7.9
2022-10-12T09:54:23.663Z,3.8
2022-10-12T09:55:24.309Z,5.4
2022-10-12T09:56:24.878Z,6.9
2022-10-12T09:57:25.476Z,7.2
2022-10-12T09:58:26.076Z,4.6
2022-10-12T09:59:26.679Z,5.2
2022-10-12T10:00:27.283Z,2.8
2022-10-12T10:01:27.928Z,3.1
2022-10-12T10:02:28.486Z,3.3
2022-10-12T10:03:30.761Z,3.9
2022-10-12T10:04:29.708Z,6.9
2022-10-12T10:05:30.301Z,4.1
2022-10-12T10:06:30.902Z,4.9
2022-10-12T10:07:31.500Z,4.5
2022-10-12T10:08:32.102Z,7.1
2022-10-12T10:09:32.704Z,4.8
2022-10-12T10:10:33.312Z,10.7
2022-10-12T10:11:33.906Z,7.3
2022-10-12T10:12:34.510Z,5.0
2022-10-12T10:13:35.110Z,4.7
2022-10-12T10:14:35.712Z,3.5
2022-10-12T10:15:36.314Z,5.7
2022-10-12T10:16:36.916Z,6.0
2022-10-12T10:17:37.517Z,4.1
2022-10-12T10:18:38.120Z,12.3
2022-10-12T10:19:38.721Z,6.6
2022-10-12T10:20:39.324Z,8.6
2022-10-12T10:21:40.027Z,4.2
2022-10-12T10:22:40.628Z,5.0
2022-10-12T10:23:41.230Z,6.7
2022-10-12T10:24:41.832Z,7.0
2022-10-12T10:25:42.453Z,7.0
2022-10-12T10:26:43.057Z,3.3
2022-10-12T10:27:43.655Z,9.6
2022-10-12T10:28:44.310Z,3.9
2022-10-12T10:29:44.882Z,6.6
2022-10-12T10:30:45.749Z,2.7
2022-10-12T10:31:46.116Z,4.6
2022-10-12T10:32:46.700Z,4.7
2022-10-12T10:33:47.301Z,6.9
2022-10-12T10:34:47.902Z,6.4
2022-10-12T10:35:50.122Z,2.3
2022-10-12T10:36:50.095Z,7.2
2022-10-12T10:37:50.694Z,6.3
2022-10-12T10:38:51.305Z,5.7
2022-10-12T10:39:51.918Z,5.0
2022-10-12T10:40:52.524Z,5.2
2022-10-12T10:41:53.477Z,5.2
2022-10-12T10:42:53.993Z,4.7
2022-10-12T10:43:54.594Z,4.4
2022-10-12T10:44:55.201Z,5.1
2022-10-12T10:45:55.801Z,2.6
2022-10-12T10:46:56.396Z,4.3
2022-10-12T10:47:56.996Z,8.4
2022-10-12T10:48:57.597Z,4.4
2022-10-12T10:49:58.198Z,4.2
2022-10-12T10:50:58.802Z,2.6
2022-10-12T10:51:59.403Z,7.8
2022-10-12T10:53:00.032Z,6.6
2022-10-12T10:54:00.624Z,7.0
2022-10-12T10:55:01.227Z,4.0
2022-10-12T10:56:01.826Z,2.1
2022-10-12T10:57:02.429Z,3.7
2022-10-12T10:58:03.030Z,7.6
2022-10-12T10:59:09.047Z,3.5
2022-10-12T11:00:26.498Z,3.6
2022-10-12T11:01:06.825Z,5.6
2022-10-12T11:02:07.446Z,5.3
2022-10-12T11:03:08.128Z,2.8
2022-10-12T11:04:08.688Z,4.5
2022-10-12T11:05:09.306Z,6.2
2022-10-12T11:06:09.906Z,5.2
2022-10-12T11:07:10.509Z,4.5
2022-10-12T11:08:11.110Z,5.3
2022-10-12T11:09:11.714Z,6.2
2022-10-12T11:10:12.316Z,6.2
2022-10-12T11:11:12.936Z,5.4
2022-10-12T11:12:13.535Z,3.5
2022-10-12T11:13:14.137Z,8.1
2022-10-12T11:14:14.746Z,3.6
2022-10-12T11:15:15.341Z,4.2
2022-10-12T11:16:15.943Z,4.8
2022-10-12T11:17:16.567Z,4.5
2022-10-12T11:18:17.167Z,5.5
2022-10-12T11:19:17.768Z,4.9
2022-10-12T11:20:19.876Z,4.8
2022-10-12T11:21:19.967Z,7.0
2022-10-12T11:22:20.566Z,2.6
2022-10-12T11:23:21.185Z,3.5
2022-10-12T11:24:21.785Z,4.3
2022-10-12T11:25:22.391Z,4.1
2022-10-12T11:26:22.990Z,7.4
2022-10-12T11:27:23.590Z,3.9
2022-10-12T11:28:24.354Z,4.2
2022-10-12T11:29:24.944Z,5.1
2022-10-12T11:30:25.547Z,6.6
2022-10-12T11:31:26.152Z,4.7
2022-10-12T11:32:26.749Z,3.5
2022-10-12T11:33:27.351Z,3.3
2022-10-12T11:34:27.950Z,3.6
2022-10-12T11:35:28.551Z,4.6
2022-10-12T11:36:29.150Z,3.9
2022-10-12T11:37:29.754Z,7.4
2022-10-12T11:38:30.354Z,3.2
2022-10-12T11:39:30.957Z,4.9
2022-10-12T11:40:55.575Z,5.1
2022-10-12T11:41:35.858Z,5.9
2022-10-12T11:42:34.640Z,6.1
2022-10-12T11:43:35.243Z,3.2
2022-10-12T11:44:35.862Z,3.5
2022-10-12T11:45:36.464Z,3.0
2022-10-12T11:46:37.063Z,3.2
2022-10-12T11:47:37.663Z,6.1
2022-10-12T11:48:38.264Z,5.6
2022-10-12T11:49:38.864Z,6.0
2022-10-12T11:50:39.466Z,5.5
2022-10-12T11:51:40.067Z,3.2
2022-10-12T11:52:40.669Z,4.7
2022-10-12T11:53:41.276Z,3.7
2022-10-12T11:54:41.891Z,3.5
2022-10-12T11:55:42.492Z,5.7
2022-10-12T11:56:43.097Z,2.4
2022-10-12T11:57:43.739Z,6.7
2022-10-12T11:59:01.447Z,3.4
2022-10-12T11:59:45.910Z,3.8
2022-10-12T12:00:46.510Z,3.9
2022-10-12T12:01:47.115Z,2.4
2022-10-12T12:02:47.732Z,2.8
2022-10-12T12:03:48.361Z,6.9
2022-10-12T12:04:49.049Z,4.1
2022-10-12T12:05:49.551Z,2.3
2022-10-12T12:06:50.150Z,3.1
2022-10-12T12:07:50.751Z,6.2
2022-10-12T12:08:51.372Z,4.1
2022-10-12T12:09:52.213Z,7.0
2022-10-12T12:10:52.969Z,2.6
2022-10-12T12:11:53.570Z,4.8
2022-10-12T12:12:54.170Z,3.7
2022-10-12T12:13:54.771Z,2.4
2022-10-12T12:14:55.377Z,3.5
2022-10-12T12:15:55.974Z,3.9
2022-10-12T12:16:56.573Z,6.3
2022-10-12T12:17:57.177Z,3.8
2022-10-12T12:18:57.778Z,6.8
2022-10-12T12:19:58.377Z,6.6
2022-10-12T12:20:58.979Z,2.0
2022-10-12T12:21:59.578Z,3.3
2022-10-12T12:23:00.180Z,12.2
2022-10-12T12:24:00.783Z,6.5
2022-10-12T12:25:01.383Z,5.1
2022-10-12T12:26:01.986Z,4.8
2022-10-12T12:27:02.607Z,2.8
2022-10-12T12:28:03.299Z,2.6
2022-10-12T12:29:03.827Z,3.5
2022-10-12T12:30:04.492Z,3.7
2022-10-12T12:31:05.079Z,2.3
2022-10-12T12:32:05.680Z,3.0
2022-10-12T12:33:06.281Z,4.2
2022-10-12T12:34:06.884Z,5.7
2022-10-12T12:35:07.504Z,3.7
2022-10-12T12:36:08.106Z,3.5
2022-10-12T12:37:08.706Z,3.3
2022-10-12T12:38:09.310Z,7.9
2022-10-12T12:39:09.914Z,4.4
2022-10-12T12:40:10.531Z,3.3
2022-10-12T12:41:11.152Z,3.4
2022-10-12T12:42:11.762Z,2.9
2022-10-12T12:43:12.357Z,4.9
2022-10-12T12:44:12.958Z,4.5
2022-10-12T12:45:13.578Z,3.0
2022-10-12T12:46:14.181Z,3.4
2022-10-12T12:48:18.422Z,1.7
2022-10-12T12:49:17.967Z,4.6
2022-10-12T12:50:18.571Z,4.4
2022-10-12T12:51:19.173Z,5.5
2022-10-12T12:52:19.774Z,4.9
2022-10-12T12:53:20.372Z,3.5
2022-10-12T12:54:20.977Z,1.8
2022-10-12T12:55:21.578Z,4.4
2022-10-12T12:56:22.179Z,2.7
2022-10-12T12:57:22.803Z,2.4
2022-10-12T12:58:23.454Z,4.7
2022-10-12T12:59:24.047Z,5.7
2022-10-12T13:00:24.766Z,4.0
2022-10-12T13:01:25.427Z,5.6
2022-10-12T13:02:26.013Z,5.8
2022-10-12T13:03:26.630Z,5.3
2022-10-12T13:04:27.232Z,7.4
2022-10-12T13:05:27.834Z,4.1
2022-10-12T13:06:28.437Z,4.1
2022-10-12T13:07:29.233Z,6.2
2022-10-12T13:08:29.917Z,6.5
2022-10-12T13:09:30.516Z,5.9
2022-10-12T13:10:31.118Z,3.2
2022-10-12T13:11:32.006Z,5.0
2022-10-12T13:12:32.607Z,5.3
2022-10-12T13:13:38.023Z,2.5
2022-10-12T13:14:34.806Z,2.6
2022-10-12T13:15:35.424Z,1.8
2022-10-12T13:17:30.105Z,9.0
2022-10-12T13:17:37.486Z,2.1
2022-10-12T13:18:51.922Z,4.4
2022-10-12T13:19:39.686Z,4.7
2022-10-12T13:20:40.284Z,2.9
2022-10-12T13:21:40.885Z,4.1
2022-10-12T13:22:41.487Z,3.4
2022-10-12T13:23:42.086Z,2.7
2022-10-12T13:24:42.686Z,2.0
2022-10-12T13:25:43.287Z,6.2
2022-10-12T13:26:43.891Z,2.5
2022-10-12T13:27:44.489Z,5.0
2022-10-12T13:28:45.155Z,2.6
2022-10-12T13:29:45.729Z,5.0
2022-10-12T13:30:46.350Z,2.8
2022-10-12T13:31:46.971Z,3.5
2022-10-12T13:32:47.572Z,6.0
2022-10-12T13:33:48.172Z,5.2
2022-10-12T13:34:48.794Z,2.4
2022-10-12T13:35:49.392Z,3.5
2022-10-12T13:36:50.059Z,4.4
2022-10-12T13:37:50.616Z,6.5
2022-10-12T13:38:51.226Z,1.4
2022-10-12T13:39:51.838Z,2.4
2022-10-12T13:40:52.441Z,2.5
2022-10-12T13:41:53.042Z,7.5
2022-10-12T13:42:53.641Z,5.8
2022-10-12T13:43:54.240Z,3.1
2022-10-12T13:44:54.845Z,2.1
2022-10-12T13:45:55.446Z,3.5